createdAt,value
2018-09-05T00:02:23.912Z,11.53
2018-09-05T00:07:16.437Z,11.50
2018-09-05T00:12:09.075Z,8.80
2018-09-05T00:17:02.054Z,11.33
2018-09-05T00:21:54.867Z,8.73
2018-09-05T00:26:47.534Z,8.57
2018-09-05T00:31:40.096Z,10.50
2018-09-05T00:36:39.566Z,8.47
2018-09-05T00:41:32.142Z,10.43
2018-09-05T00:46:24.711Z,10.17
2018-09-05T00:51:17.409Z,10.80
2018-09-05T00:56:09.945Z,11.17
2018-09-05T01:01:02.508Z,10.50
2018-09-05T01:05:55.315Z,8.77
2018-09-05T01:10:48.102Z,9.07
2018-09-05T01:15:41.215Z,10.30
2018-09-05T01:20:33.807Z,9.90
2018-09-05T01:25:26.500Z,9.83
2018-09-05T01:30:19.120Z,9.63
2018-09-05T01:35:11.714Z,11.13
2018-09-05T01:40:04.487Z,15.27
2018-09-05T01:44:57.144Z,15.60
2018-09-05T01:49:49.778Z,19.83
2018-09-05T01:54:42.373Z,22.80
2018-09-05T01:59:34.986Z,22.97
2018-09-05T02:04:27.599Z,23.13
2018-09-05T02:09:20.210Z,24.47
2018-09-05T02:14:12.910Z,25.83
2018-09-05T02:19:05.518Z,23.27
2018-09-05T02:23:58.170Z,25.00
2018-09-05T02:28:51.154Z,25.97
2018-09-05T02:33:43.838Z,30.50
2018-09-05T02:38:36.520Z,28.30
2018-09-05T02:43:34.904Z,30.20
2018-09-05T02:48:27.516Z,31.47
2018-09-05T02:53:20.288Z,33.77
2018-09-05T02:58:12.814Z,29.03
2018-09-05T03:03:05.773Z,30.03
2018-09-05T03:07:58.379Z,36.27
2018-09-05T03:12:50.960Z,35.03
2018-09-05T03:17:43.568Z,30.23
2018-09-05T03:22:36.195Z,31.50
2018-09-05T03:27:28.762Z,29.33
2018-09-05T03:32:21.521Z,30.27
2018-09-05T03:37:14.092Z,31.60
2018-09-05T03:42:06.817Z,31.93
2018-09-05T03:46:59.393Z,33.00
2018-09-05T03:51:52.024Z,33.67
2018-09-05T03:56:44.541Z,31.90
2018-09-05T04:01:37.159Z,33.30
2018-09-05T04:06:29.742Z,32.70
2018-09-05T04:11:22.351Z,30.47
2018-09-05T04:16:14.918Z,34.37
2018-09-05T04:21:07.502Z,35.23
2018-09-05T04:26:00.164Z,32.27
2018-09-05T04:30:52.885Z,32.10
2018-09-05T04:35:45.451Z,35.30
2018-09-05T04:40:38.067Z,29.23
2018-09-05T04:45:30.713Z,31.17
2018-09-05T04:50:23.386Z,32.50
2018-09-05T04:55:15.981Z,35.73
2018-09-05T05:00:08.618Z,31.23
2018-09-05T05:05:01.161Z,31.40
2018-09-05T05:09:53.982Z,30.87
2018-09-05T05:14:46.719Z,33.80
2018-09-05T05:19:39.306Z,32.70
2018-09-05T05:24:31.850Z,28.47
2018-09-05T05:29:24.550Z,28.67
2018-09-05T05:34:17.696Z,23.87
2018-09-05T05:39:11.235Z,25.30
2018-09-05T05:44:03.986Z,20.20
2018-09-05T05:48:56.658Z,20.50
2018-09-05T05:53:49.281Z,20.00
2018-09-05T05:58:41.984Z,19.70
2018-09-05T06:03:34.739Z,16.80
2018-09-05T06:08:31.818Z,20.07
2018-09-05T06:13:24.489Z,17.60
2018-09-05T06:18:17.113Z,19.33
2018-09-05T06:23:09.686Z,15.40
2018-09-05T06:28:02.243Z,22.50
2018-09-05T06:32:54.939Z,15.97
2018-09-05T06:37:47.499Z,16.07
2018-09-05T06:42:40.115Z,21.40
2018-09-05T06:47:32.839Z,13.40
2018-09-05T06:52:25.443Z,16.77
2018-09-05T06:57:18.396Z,14.17
2018-09-05T07:02:11.021Z,14.07
2018-09-05T07:07:03.767Z,11.30
2018-09-05T07:11:56.362Z,15.37
2018-09-05T07:16:49.059Z,14.07
2018-09-05T07:21:41.588Z,12.13
2018-09-05T07:26:34.177Z,12.90
2018-09-05T07:31:26.788Z,9.77
2018-09-05T07:36:19.389Z,14.43
2018-09-05T07:41:12.054Z,13.90
2018-09-05T07:46:05.042Z,14.20
2018-09-05T07:50:57.772Z,14.40
2018-09-05T07:55:50.467Z,11.23
2018-09-05T08:00:43.205Z,14.07
2018-09-05T08:05:35.827Z,10.87
2018-09-05T08:10:28.432Z,15.50
2018-09-05T08:15:20.991Z,10.13
2018-09-05T08:20:13.705Z,11.90
2018-09-05T08:25:06.547Z,14.60
2018-09-05T08:29:59.236Z,12.07
2018-09-05T08:34:52.659Z,12.37
2018-09-05T08:39:45.736Z,8.40
2018-09-05T08:44:38.295Z,10.37
2018-09-05T08:49:30.865Z,16.50
2018-09-05T08:54:23.603Z,12.10
2018-09-05T08:59:16.195Z,14.53
2018-09-05T09:04:08.760Z,8.97
2018-09-05T09:09:01.424Z,9.00
2018-09-05T09:13:53.969Z,10.93
2018-09-05T09:18:46.648Z,9.83
2018-09-05T09:23:39.347Z,30.47
2018-09-05T09:28:31.914Z,18.10
2018-09-05T09:33:24.857Z,37.40
2018-09-05T09:38:18.036Z,26.60
2018-09-05T09:43:10.783Z,20.80
2018-09-05T09:48:03.886Z,14.97
2018-09-05T09:52:56.499Z,19.50
2018-09-05T09:57:49.246Z,11.47
2018-09-05T10:02:47.536Z,13.40
2018-09-05T10:07:45.753Z,15.87
2018-09-05T10:12:46.996Z,8.07
2018-09-05T10:17:39.899Z,11.80
2018-09-05T10:22:32.836Z,11.70
2018-09-05T10:27:26.283Z,20.17
2018-09-05T10:32:18.911Z,13.90
2018-09-05T10:37:11.739Z,13.93
2018-09-05T10:42:04.950Z,14.10
2018-09-05T10:46:57.534Z,14.83
2018-09-05T10:51:54.388Z,15.13
2018-09-05T10:56:47.004Z,10.83
2018-09-05T11:01:39.704Z,11.10
2018-09-05T11:06:32.317Z,11.20
2018-09-05T11:11:24.966Z,11.70
2018-09-05T11:16:17.742Z,9.90
2018-09-05T11:21:10.398Z,14.03
2018-09-05T11:26:03.048Z,11.93
2018-09-05T11:30:55.684Z,10.80
2018-09-05T11:35:48.262Z,10.33
2018-09-05T11:40:40.866Z,8.70
2018-09-05T11:45:33.530Z,9.30
2018-09-05T11:50:26.115Z,6.97
2018-09-05T11:55:18.767Z,7.90
2018-09-05T12:00:11.349Z,7.93
2018-09-05T12:05:04.025Z,5.50
2018-09-05T12:09:56.617Z,7.10
2018-09-05T12:14:49.190Z,6.07
2018-09-05T12:19:41.786Z,11.33
2018-09-05T12:25:08.981Z,8.10
2018-09-05T12:30:01.719Z,5.80
2018-09-05T12:34:54.470Z,10.27
2018-09-05T12:39:47.148Z,10.10
2018-09-05T12:44:39.804Z,10.17
2018-09-05T12:49:32.410Z,9.57
2018-09-05T12:54:25.106Z,7.60
2018-09-05T12:59:17.762Z,9.23
2018-09-05T13:04:10.391Z,16.70
2018-09-05T13:09:05.839Z,7.93
2018-09-05T13:13:58.785Z,7.70
2018-09-05T13:18:51.294Z,8.43
2018-09-05T13:23:43.987Z,8.40
2018-09-05T13:28:36.758Z,6.93
2018-09-05T13:33:29.335Z,12.17
2018-09-05T13:38:22.086Z,9.53
2018-09-05T13:43:14.830Z,14.00
2018-09-05T13:48:07.505Z,8.23
2018-09-05T13:53:00.109Z,8.27
2018-09-05T13:57:52.659Z,10.67
2018-09-05T14:02:46.412Z,7.93
2018-09-05T14:07:38.970Z,9.70
2018-09-05T14:12:31.576Z,10.20
2018-09-05T14:17:24.283Z,11.73
2018-09-05T14:22:16.900Z,6.57
2018-09-05T14:27:09.694Z,7.23
2018-09-05T14:32:02.285Z,7.70
2018-09-05T14:36:54.916Z,8.70
2018-09-05T14:41:47.518Z,12.20
2018-09-05T14:46:40.171Z,13.30
2018-09-05T14:51:33.014Z,12.23
2018-09-05T14:56:25.735Z,9.37
2018-09-05T15:01:18.500Z,9.70
2018-09-05T15:06:11.161Z,6.47
2018-09-05T15:11:03.887Z,6.30
2018-09-05T15:15:56.576Z,10.77
2018-09-05T15:20:49.232Z,9.60
2018-09-05T15:25:42.185Z,8.27
2018-09-05T15:30:34.819Z,11.60
2018-09-05T15:35:27.398Z,8.83
2018-09-05T15:40:20.084Z,8.47
2018-09-05T15:45:12.763Z,6.80
2018-09-05T15:50:05.497Z,8.73
2018-09-05T15:54:57.963Z,12.77
2018-09-05T15:59:51.104Z,6.30
2018-09-05T16:04:43.767Z,5.80
2018-09-05T16:09:36.339Z,9.63
2018-09-05T16:14:29.098Z,6.03
2018-09-05T16:19:21.678Z,7.33
2018-09-05T16:24:14.243Z,10.97
2018-09-05T16:29:06.896Z,6.20
2018-09-05T16:33:59.499Z,5.70
2018-09-05T16:38:52.128Z,7.90
2018-09-05T16:43:44.746Z,6.47
2018-09-05T16:48:37.469Z,5.97
2018-09-05T16:53:30.039Z,6.77
2018-09-05T16:58:22.693Z,6.40
2018-09-05T17:03:15.414Z,6.47
2018-09-05T17:08:07.963Z,6.93
2018-09-05T17:13:00.520Z,8.03
2018-09-05T17:17:53.176Z,8.30
2018-09-05T17:22:45.764Z,7.27
2018-09-05T17:27:38.299Z,8.20
2018-09-05T17:32:30.895Z,7.97
2018-09-05T17:37:23.451Z,10.23
2018-09-05T17:42:16.008Z,7.33
2018-09-05T17:47:08.627Z,9.63
2018-09-05T17:52:01.200Z,11.27
2018-09-05T17:56:53.794Z,11.07
2018-09-05T18:01:46.427Z,9.83
2018-09-05T18:06:39.058Z,9.77
2018-09-05T18:11:31.700Z,10.93
2018-09-05T18:16:24.375Z,13.07
2018-09-05T18:21:17.011Z,7.00
2018-09-05T18:26:09.920Z,9.40
2018-09-05T18:31:02.535Z,8.70
2018-09-05T18:35:55.798Z,13.90
2018-09-05T18:40:48.326Z,10.93
2018-09-05T18:45:40.985Z,9.70
2018-09-05T18:50:33.664Z,9.17
2018-09-05T18:55:26.260Z,9.47
2018-09-05T19:00:18.867Z,9.40
2018-09-05T19:05:11.577Z,10.53
2018-09-05T19:10:04.186Z,8.23
2018-09-05T19:14:56.818Z,8.87
2018-09-05T19:19:49.392Z,9.17
2018-09-05T19:24:42.159Z,7.40
2018-09-05T19:29:34.744Z,13.37
2018-09-05T19:34:27.334Z,9.37
2018-09-05T19:39:19.915Z,12.93
2018-09-05T19:44:12.798Z,9.27
2018-09-05T19:49:05.408Z,8.70
2018-09-05T19:53:57.950Z,14.67
2018-09-05T19:58:50.551Z,10.47
2018-09-05T20:03:43.103Z,7.50
2018-09-05T20:08:35.817Z,9.37
2018-09-05T20:13:28.448Z,11.70
2018-09-05T20:18:21.203Z,10.70
2018-09-05T20:23:13.812Z,14.83
2018-09-05T20:28:06.501Z,12.47
2018-09-05T20:32:59.117Z,11.57
2018-09-05T20:37:51.674Z,16.07
2018-09-05T20:42:44.457Z,9.07
2018-09-05T20:47:37.049Z,10.50
2018-09-05T20:52:29.655Z,12.67
2018-09-05T20:57:22.282Z,14.57
2018-09-05T21:02:14.839Z,12.50
2018-09-05T21:07:07.454Z,13.77
2018-09-05T21:12:00.232Z,9.17
2018-09-05T21:16:52.882Z,12.33
2018-09-05T21:21:45.432Z,11.43
2018-09-05T21:26:38.218Z,11.30
2018-09-05T21:31:30.699Z,7.80
2018-09-05T21:36:23.353Z,15.77
2018-09-05T21:41:15.908Z,10.57
2018-09-05T21:46:08.528Z,10.77
2018-09-05T21:51:01.121Z,10.67
2018-09-05T21:55:53.768Z,9.43
2018-09-05T22:00:47.324Z,8.40
2018-09-05T22:05:39.886Z,11.03
2018-09-05T22:10:32.397Z,12.87
2018-09-05T22:15:24.967Z,10.40
2018-09-05T22:20:17.476Z,9.27
2018-09-05T22:25:10.013Z,8.37
2018-09-05T22:30:02.557Z,11.90
2018-09-05T22:34:55.402Z,12.13
2018-09-05T22:39:47.962Z,12.03
2018-09-05T22:44:58.237Z,15.27
2018-09-05T22:51:13.289Z,11.50
2018-09-05T22:56:37.868Z,15.03
2018-09-05T23:01:53.843Z,11.43
2018-09-05T23:07:03.819Z,8.87
2018-09-05T23:12:23.034Z,9.20
2018-09-05T23:18:33.060Z,11.23
2018-09-05T23:23:43.219Z,13.07
2018-09-05T23:28:36.549Z,10.80
2018-09-05T23:33:29.176Z,10.07
2018-09-05T23:38:21.812Z,15.60
2018-09-05T23:43:14.527Z,14.50
2018-09-05T23:48:07.195Z,13.67
2018-09-05T23:52:59.826Z,11.57
2018-09-05T23:57:52.411Z,19.67
